Terminal Aerodrome Forecast
Issued by NWS

Home | Current Version | Previous Version | Text Only | Print | Product List | Glossary On
Versions: 1 2 3 4 5 6 7 8 9 10 11 12 13
698
FTUS43 KEAX 140538
TAFMKC
TAF
KMKC 140538Z 1406/1506 11009KT P6SM OVC060
     FM140900 13011KT P6SM OVC030
      TEMPO 1410/1414 -FZDZ BKN020
     FM141500 18010KT P6SM BKN025
     FM141800 22010KT P6SM SCT030
     FM142300 24006KT P6SM BKN150=

USA.gov is the U.S. government's official web portal to all federal, state and local government web resources and services.